createdAt,value
2023-04-24T00:05:23.224Z,40.80
2023-04-24T00:15:28.863Z,40.88
2023-04-24T00:25:34.668Z,41.21
2023-04-24T00:35:38.569Z,41.14
2023-04-24T00:45:42.262Z,41.31
2023-04-24T00:55:46.554Z,41.61
2023-04-24T01:05:52.237Z,42.30
2023-04-24T01:16:09.199Z,42.68
2023-04-24T01:26:14.700Z,42.83
2023-04-24T01:36:21.546Z,43.12
2023-04-24T01:46:27.612Z,43.28
2023-04-24T01:56:31.642Z,43.27
2023-04-24T02:06:36.963Z,43.34
2023-04-24T02:16:41.787Z,43.14
2023-04-24T02:26:46.001Z,43.12
2023-04-24T02:36:50.939Z,42.96
2023-04-24T02:46:57.777Z,42.96
2023-04-24T02:57:02.417Z,42.81
2023-04-24T03:07:09.927Z,42.75
2023-04-24T03:17:14.521Z,42.79
2023-04-24T03:27:22.962Z,43.19
2023-04-24T03:37:46.863Z,43.65
2023-04-24T03:48:10.719Z,44.29
2023-04-24T03:58:15.816Z,44.29
2023-04-24T04:08:24.422Z,44.28
2023-04-24T04:18:28.720Z,43.98
2023-04-24T04:28:33.708Z,43.78
2023-04-24T04:38:39.880Z,43.38
2023-04-24T04:48:55.768Z,43.42
2023-04-24T04:59:02.191Z,43.53
2023-04-24T05:09:08.643Z,43.48
2023-04-24T05:19:21.039Z,43.96
2023-04-24T05:29:32.176Z,44.08
2023-04-24T05:39:38.003Z,44.55
2023-04-24T05:49:41.820Z,45.11
2023-04-24T05:59:46.650Z,45.91
2023-04-24T06:09:56.416Z,47.23
2023-04-24T06:20:00.730Z,48.86
2023-04-24T06:30:05.111Z,49.90
2023-04-24T06:40:12.996Z,51.66
2023-04-24T06:50:16.670Z,53.68
2023-04-24T07:00:20.748Z,55.38
2023-04-24T07:10:25.817Z,56.35
2023-04-24T07:20:29.597Z,56.69
2023-04-24T07:30:37.228Z,57.02
2023-04-24T07:40:40.921Z,56.85
2023-04-24T07:50:45.821Z,56.58
2023-04-24T08:00:51.242Z,55.77
2023-04-24T08:10:56.880Z,53.85
2023-04-24T08:21:02.677Z,50.00
2023-04-24T08:31:09.037Z,47.52
2023-04-24T08:41:15.179Z,46.83
2023-04-24T08:51:21.660Z,45.80
2023-04-24T09:01:27.330Z,45.82
2023-04-24T09:11:36.089Z,44.40
2023-04-24T09:21:39.969Z,42.82
2023-04-24T09:31:50.151Z,42.03
2023-04-24T09:42:01.982Z,43.39
2023-04-24T09:52:09.966Z,43.63
2023-04-24T10:02:22.733Z,43.81
2023-04-24T10:12:26.632Z,42.77
2023-04-24T10:22:34.498Z,42.41
2023-04-24T10:32:38.786Z,41.33
2023-04-24T10:42:47.233Z,40.45
2023-04-24T10:52:52.590Z,40.15
2023-04-24T11:03:00.715Z,37.85
2023-04-24T11:13:04.874Z,35.81
2023-04-24T11:23:09.875Z,34.33
2023-04-24T11:33:22.553Z,33.38
2023-04-24T11:43:27.393Z,32.47
2023-04-24T11:53:31.976Z,31.85
2023-04-24T12:03:39.259Z,32.50
2023-04-24T12:13:43.267Z,32.62
2023-04-24T12:23:48.998Z,31.60
2023-04-24T12:33:52.695Z,31.56
2023-04-24T12:43:57.773Z,31.33
2023-04-24T12:54:01.383Z,31.57
2023-04-24T13:04:05.058Z,32.07
2023-04-24T13:14:08.802Z,31.56
2023-04-24T13:24:54.327Z,30.81
2023-04-24T13:34:59.171Z,31.12
2023-04-24T13:45:13.845Z,32.61
2023-04-24T13:55:47.057Z,35.38
2023-04-24T14:06:51.487Z,37.23
2023-04-24T14:16:55.400Z,37.42
2023-04-24T14:27:01.421Z,34.65
2023-04-24T14:37:05.054Z,31.55
2023-04-24T14:47:12.731Z,29.44
2023-04-24T14:57:16.735Z,27.47
2023-04-24T15:07:22.299Z,26.24
2023-04-24T15:17:30.320Z,25.73
2023-04-24T15:27:47.522Z,28.43
2023-04-24T15:37:51.130Z,31.33
2023-04-24T15:47:54.925Z,34.56
2023-04-24T15:57:58.624Z,42.40
2023-04-24T16:08:05.460Z,45.69
2023-04-24T16:18:12.848Z,44.91
2023-04-24T16:28:17.349Z,45.03
2023-04-24T16:38:21.333Z,46.17
2023-04-24T16:48:27.043Z,46.14
2023-04-24T16:58:31.637Z,46.24
2023-04-24T17:08:37.336Z,47.26
2023-04-24T17:18:43.002Z,48.05
2023-04-24T17:28:46.801Z,48.83
2023-04-24T17:38:53.080Z,49.57
2023-04-24T17:48:57.316Z,50.03
2023-04-24T17:59:01.134Z,50.57
2023-04-24T18:09:04.671Z,50.96
2023-04-24T18:19:13.485Z,50.91
2023-04-24T18:29:20.284Z,51.05
2023-04-24T18:40:26.356Z,51.03
2023-04-24T18:50:32.128Z,50.96
2023-04-24T19:00:39.562Z,51.02
2023-04-24T19:10:44.869Z,50.43
2023-04-24T19:20:56.886Z,49.68
2023-04-24T19:31:04.100Z,49.94
2023-04-24T19:41:07.779Z,50.52
2023-04-24T19:51:13.306Z,52.25
2023-04-24T20:01:17.033Z,53.70
2023-04-24T20:11:20.768Z,55.29
2023-04-24T20:21:44.661Z,54.76
2023-04-24T20:31:48.782Z,53.69
2023-04-24T20:41:52.901Z,53.99
2023-04-24T20:51:59.479Z,54.15
2023-04-24T21:02:45.639Z,54.06
2023-04-24T21:12:49.560Z,53.87
2023-04-24T21:22:53.305Z,54.25
2023-04-24T21:32:59.742Z,54.82
2023-04-24T21:43:03.925Z,55.26
2023-04-24T21:53:07.590Z,55.80
2023-04-24T22:03:34.057Z,56.63
2023-04-24T22:13:38.189Z,57.05
2023-04-24T22:23:41.832Z,57.42
2023-04-24T22:33:47.618Z,57.71
2023-04-24T22:43:52.155Z,58.32
2023-04-24T22:53:58.374Z,58.89
2023-04-24T23:04:02.083Z,58.79
2023-04-24T23:14:07.387Z,58.80
2023-04-24T23:24:12.798Z,59.37
2023-04-24T23:34:39.623Z,59.64
2023-04-24T23:44:43.204Z,59.77
2023-04-24T23:54:48.205Z,60.25
